Latest Weather Observations for Bradshaw

IDD60801

Issued at 1:35 pm CST Friday 25 April 2014 (issued every 30 minutes, with the page automatically refreshed every 10 minutes)

About weather observations | Map of weather stations | Latest weather observations for NT | Other Formats
Station Details ID: 014954 Name: BRADSHAW Lat: -14.94 Lon: 130.81 Height: 75.0 m
Data from the previous 72 hours. | See also: Recent months at Bradshaw
Date/Time
CST
Temp
°C
App
Temp
°C
Dew
Point
Rel
Hum
%
Delta-T
°C
Wind Press
QNH
hPa
Press
MSL
hPa
Rain
since 9 am
mm
Dir
 
Spd
km/h
Gust
km/h
Spd
kts
Gust
kts
25/01:30pm 36.3 34.7 15.9 29 13.0 E 19 28 10 15 1008.5 - 0.0
25/01:00pm 35.8 33.6 16.0 30 12.6 E 22 30 12 16 1009.1 - 0.0
25/12:30pm 36.4 34.6 16.0 29 13.0 E 20 32 11 17 1009.4 - 0.0
25/12:00pm 33.6 34.2 18.5 40 9.9 SSE 13 24 7 13 1010.0 1009.5 0.0
25/11:30am 34.3 36.1 20.3 44 9.4 SE 11 19 6 10 1010.4 - 0.0
25/11:00am 32.7 35.2 20.2 47 8.3 ESE 7 17 4 9 1010.9 - 0.0
25/10:30am 31.9 34.6 20.2 50 7.8 SE 6 11 3 6 1011.3 - 0.0
25/10:00am 31.1 33.4 19.8 51 7.5 SSW 7 11 4 6 1011.5 - 0.0
25/09:30am 29.6 31.7 19.3 54 6.7 WSW 7 9 4 5 1011.5 - 0.0
25/09:00am 29.2 32.0 18.9 53 6.7 NW 2 7 1 4 1011.5 1011.0 0.0
25/08:30am 27.9 31.1 18.9 58 5.8 CALM 0 6 0 3 1011.3 - 0.0
25/08:00am 25.0 28.4 19.4 71 3.6 CALM 0 0 0 0 1011.1 - 0.0
25/07:30am 22.6 25.9 19.2 81 2.2 CALM 0 0 0 0 1010.6 - 0.0
25/07:00am 21.9 24.1 18.3 80 2.3 NNE 4 9 2 5 1010.3 - 0.0
25/06:30am 22.1 24.5 18.7 81 2.1 NNE 4 9 2 5 1009.8 - 0.0
25/06:00am 21.7 24.6 18.3 81 2.1 CALM 0 0 0 0 1009.3 1008.8 0.0
25/05:00am 22.1 23.7 18.3 79 2.4 N 7 9 4 5 1008.9 - 0.0
25/04:30am 22.2 24.0 18.4 79 2.4 N 6 9 3 5 1008.5 - 0.0
25/04:00am 22.5 25.5 18.5 78 2.5 CALM 0 0 0 0 1008.3 - 0.0
25/03:30am 22.6 24.9 18.6 78 2.5 N 4 7 2 4 1008.3 - 0.0
25/03:00am 23.0 25.3 18.5 76 2.8 N 4 7 2 4 1008.4 1007.9 0.0
25/02:30am 23.1 26.1 18.4 75 3.0 CALM 0 0 0 0 1008.5 - 0.0
25/02:00am 23.2 24.9 18.1 73 3.2 N 6 7 3 4 1008.8 - 0.0
25/01:30am 23.4 25.2 18.3 73 3.2 NNW 6 7 3 4 1009.0 - 0.0
25/01:00am 24.0 25.8 18.4 71 3.5 N 6 7 3 4 1009.3 - 0.0
25/12:30am 24.1 27.1 18.5 71 3.5 CALM 0 0 0 0 1009.5 - 0.0
25/12:00am 24.8 26.5 18.0 66 4.3 WNW 6 7 3 4 1009.7 1009.2 0.0
 
Date/Time
CST
Temp
°C
App
Temp
°C
Dew
Point
Rel
Hum
%
Delta-T
°C
Wind Press
QNH
hPa
Press
MSL
hPa
Rain
since 9 am
mm
Dir
 
Spd
km/h
Gust
km/h
Spd
kts
Gust
kts
24/11:30pm 25.6 27.3 18.0 63 4.8 WNW 6 9 3 5 1009.8 - 0.0
24/11:00pm 24.9 28.0 18.6 68 4.0 CALM 0 0 0 0 1009.8 - 0.0
24/10:30pm 25.2 27.4 18.4 66 4.3 N 4 7 2 4 1010.0 - 0.0
24/10:00pm 27.3 28.6 17.5 55 6.2 NE 7 9 4 5 1009.8 - 0.0
24/09:30pm 27.5 28.3 17.4 54 6.4 NE 9 11 5 6 1009.6 - 0.0
24/09:00pm 25.9 27.9 18.8 65 4.6 NE 6 9 3 5 1009.4 1008.9 0.0
24/08:30pm 26.7 29.6 18.3 60 5.4 CALM 0 0 0 0 1009.0 - 0.0
24/08:00pm 27.6 30.2 17.5 54 6.4 CALM 0 0 0 0 1008.6 - 0.0
24/07:30pm 29.5 30.5 16.3 45 8.2 NE 6 7 3 4 1008.1 - 0.0
24/07:00pm 31.6 31.4 14.7 36 10.4 E 9 13 5 7 1007.7 - 0.0
24/06:30pm 33.0 32.6 14.1 32 11.6 ESE 9 15 5 8 1007.4 - 0.0
24/06:00pm 34.7 33.0 13.5 28 13.0 ESE 15 22 8 12 1007.1 1006.6 0.0
24/05:30pm 35.6 33.5 13.7 27 13.4 ESE 17 24 9 13 1006.7 - 0.0
24/05:00pm 36.0 34.3 13.5 26 13.8 ESE 15 22 8 12 1006.5 - 0.0
24/04:30pm 36.4 34.4 13.8 26 13.9 ESE 17 26 9 14 1006.4 - 0.0
24/04:00pm 36.0 34.1 14.1 27 13.5 SE 17 30 9 16 1006.6 - 0.0
24/03:30pm 36.1 32.8 14.1 26 13.6 SSE 24 33 13 18 1006.9 - 0.0
24/03:00pm 35.2 32.1 14.5 29 12.9 SE 24 37 13 20 1007.1 1006.6 0.0
24/02:30pm 35.2 32.8 14.5 29 12.8 SE 20 32 11 17 1007.3 - 0.0
24/02:00pm 35.9 34.3 16.1 30 12.6 ESE 19 28 10 15 1007.6 - 0.0
24/01:30pm 35.6 34.3 15.9 31 12.5 E 17 33 9 18 1008.2 - 0.0
24/01:00pm 34.9 33.2 16.2 32 11.9 SE 20 32 11 17 1008.8 - 0.0
24/12:30pm 34.8 32.7 16.1 32 11.8 SE 22 33 12 18 1009.3 - 0.0
24/12:00pm 35.3 33.3 17.5 34 11.5 SE 24 41 13 22 1010.1 1009.6 0.0
24/11:30am 34.3 35.3 20.3 44 9.4 S 15 24 8 13 1010.7 - 0.0
24/11:00am 32.9 34.6 20.1 47 8.5 S 11 24 6 13 1011.4 - 0.0
24/10:30am 32.5 33.0 20.1 48 8.2 SE 17 22 9 12 1011.5 - 0.0
24/10:00am 31.4 34.0 20.0 50 7.5 NNW 6 9 3 5 1011.4 - 0.0
24/09:30am 29.8 32.5 19.5 54 6.7 NNW 4 7 2 4 1011.3 - 0.0
24/09:00am 28.5 31.6 18.6 55 6.4 CALM 0 0 0 0 1011.2 1010.7 0.0
24/08:30am 26.8 29.5 17.8 57 5.7 CALM 0 6 0 3 1011.1 - 0.0
24/08:00am 25.1 28.0 18.1 65 4.4 CALM 0 4 0 2 1010.7 - 0.0
24/07:30am 22.5 25.4 18.3 77 2.6 CALM 0 0 0 0 1010.4 - 0.0
24/07:00am 21.6 24.2 17.4 77 2.6 CALM 0 0 0 0 1010.1 - 0.0
24/06:30am 21.9 24.5 17.5 76 2.7 CALM 0 0 0 0 1009.7 - 0.0
24/06:00am 21.9 24.7 17.9 78 2.5 CALM 0 0 0 0 1009.3 1008.8 0.0
24/05:30am 21.8 24.5 17.8 78 2.5 CALM 0 7 0 4 1008.9 - 0.0
24/05:00am 21.6 23.2 17.8 79 2.4 N 6 9 3 5 1008.8 - 0.0
24/04:30am 21.7 24.2 17.3 76 2.7 CALM 0 0 0 0 1008.7 - 0.0
24/04:00am 22.0 24.6 17.4 75 2.8 CALM 0 0 0 0 1008.5 - 0.0
24/03:30am 22.3 24.9 17.4 74 3.0 CALM 0 0 0 0 1008.4 - 0.0
24/03:00am 22.4 24.9 17.3 73 3.2 CALM 0 0 0 0 1008.6 1008.1 0.0
24/02:30am 22.9 25.5 17.4 71 3.4 CALM 0 0 0 0 1008.7 - 0.0
24/02:00am 23.3 25.4 17.3 69 3.7 NNW 2 7 1 4 1009.2 - 0.0
24/01:30am 24.5 25.6 17.2 63 4.5 WNW 7 11 4 6 1009.5 - 0.0
24/01:00am 23.7 26.4 17.7 69 3.7 CALM 0 0 0 0 1009.9 - 0.0
24/12:30am 23.9 25.2 17.6 68 3.9 W 7 9 4 5 1009.9 - 0.0
24/12:00am 25.4 26.6 17.3 61 5.1 NW 7 9 4 5 1010.1 1009.6 0.0
 
Date/Time
CST
Temp
°C
App
Temp
°C
Dew
Point
Rel
Hum
%
Delta-T
°C
Wind Press
QNH
hPa
Press
MSL
hPa
Rain
since 9 am
mm
Dir
 
Spd
km/h
Gust
km/h
Spd
kts
Gust
kts
23/11:30pm 24.3 25.8 18.0 68 4.0 NNE 7 9 4 5 1010.3 - 0.0
23/11:00pm 26.6 27.6 17.7 58 5.6 NE 9 9 5 5 1010.4 - 0.0
23/10:30pm 27.1 28.0 16.7 53 6.5 NE 7 9 4 5 1010.4 - 0.0
23/10:00pm 27.2 28.2 16.8 53 6.5 NE 7 9 4 5 1010.3 - 0.0
23/09:30pm 26.4 27.9 18.0 60 5.3 NNE 7 9 4 5 1010.2 - 0.0
23/09:00pm 26.4 29.4 18.5 62 5.0 CALM 0 0 0 0 1009.9 1009.4 0.0
23/08:30pm 27.3 29.1 18.3 58 5.7 N 6 7 3 4 1009.4 - 0.0
23/08:00pm 29.0 30.2 16.9 48 7.6 NE 6 7 3 4 1008.9 - 0.0
23/07:30pm 29.9 31.4 15.6 42 8.8 ENE 2 6 1 3 1008.6 - 0.0
23/07:00pm 30.4 31.1 14.5 38 9.7 NE 4 7 2 4 1008.0 - 0.0
23/06:30pm 33.4 32.2 12.9 28 12.3 ESE 11 15 6 8 1007.5 - 0.0
23/06:00pm 34.9 33.0 13.1 27 13.3 SE 15 20 8 11 1007.1 1006.6 0.0
23/05:30pm 35.7 34.1 13.8 27 13.5 SE 15 20 8 11 1006.7 - 0.0
23/05:00pm 35.8 33.2 13.3 26 13.7 SSE 19 28 10 15 1006.6 - 0.0
23/04:30pm 36.9 34.2 13.0 24 14.6 SE 19 28 10 15 1006.5 - 0.0
23/04:00pm 37.7 36.0 13.7 24 14.8 SE 15 26 8 14 1006.7 - 0.0
23/03:30pm 35.6 33.0 13.7 27 13.4 SSE 20 32 11 17 1007.1 - 0.0
23/03:00pm 36.9 35.0 14.2 25 14.1 SE 17 30 9 16 1007.4 1006.9 0.0
23/02:30pm 36.5 36.4 16.1 29 13.0 SSE 11 20 6 11 1007.9 - 0.0
23/02:00pm 35.8 33.6 15.0 29 13.0 ESE 20 30 11 16 1008.5 - 0.0
23/01:30pm 36.0 33.3 14.6 27 13.3 SSE 22 37 12 20 1008.9 - 0.0
23/01:00pm 35.9 33.2 14.5 27 13.3 SE 22 30 12 16 1009.4 - 0.0
23/12:30pm 34.9 33.9 15.7 31 12.1 SE 15 26 8 14 1010.0 - 0.0
23/12:00pm 34.2 32.6 16.1 34 11.5 ESE 19 37 10 20 1010.7 1010.2 0.0
23/11:30am 33.9 32.8 17.2 37 10.7 SE 19 35 10 19 1011.4 - 0.0
23/11:00am 33.1 32.7 18.8 42 9.4 ESE 19 22 10 12 1011.9 - 0.0
23/10:30am 32.4 33.5 19.6 46 8.5 E 13 22 7 12 1012.1 - 0.0
23/10:00am 31.1 32.1 19.4 49 7.7 SE 13 20 7 11 1012.1 - 0.0
23/09:30am 29.3 30.6 17.2 48 7.6 ESE 6 9 3 5 1012.1 - 0.0
23/09:00am 27.5 28.2 15.5 48 7.3 SW 6 9 3 5 1012.1 1011.6 0.0
23/08:30am 25.9 26.6 15.6 53 6.3 W 6 9 3 5 1012.0 - 0.0
23/08:00am 23.7 25.9 16.5 64 4.4 CALM 0 0 0 0 1011.8 - 0.0
23/07:30am 21.5 23.6 17.1 76 2.7 NNW 2 6 1 3 1011.6 - 0.0
23/07:00am 20.0 22.3 16.8 82 1.9 CALM 0 0 0 0 1011.1 - 0.0
23/06:30am 20.1 22.5 17.1 83 1.8 CALM 0 0 0 0 1010.6 - 0.0
23/06:00am 20.5 22.9 17.1 81 2.1 CALM 0 0 0 0 1010.5 1010.0 0.0
23/05:30am 20.7 21.9 16.9 79 2.3 NNW 6 7 3 4 1010.5 - 0.0
23/05:00am 21.2 22.7 16.6 75 2.8 N 4 9 2 5 1010.4 - 0.0
23/04:30am 22.5 23.5 16.8 70 3.5 NE 7 9 4 5 1010.7 - 0.0
23/04:00am 21.9 24.4 17.3 75 2.8 CALM 0 0 0 0 1010.3 - 0.0
23/03:30am 21.8 24.4 17.4 76 2.7 CALM 0 0 0 0 1010.3 - 0.0
23/03:00am 22.2 25.1 18.2 78 2.5 CALM 0 0 0 0 1010.4 1009.9 0.0
23/02:30am 22.2 25.1 18.2 78 2.5 CALM 0 0 0 0 1010.7 - 0.0
23/02:00am 22.6 25.5 18.2 76 2.8 CALM 0 0 0 0 1010.8 - 0.0
23/01:30am 22.8 25.6 17.9 74 3.1 CALM 0 0 0 0 1011.1 - 0.0
23/01:00am 23.1 25.9 18.0 73 3.2 CALM 0 0 0 0 1011.1 - 0.0
23/12:30am 23.5 26.3 17.9 71 3.5 CALM 0 0 0 0 1011.5 - 0.0
23/12:00am 24.1 26.8 17.8 68 4.0 CALM 0 0 0 0 1011.7 1011.2 0.0
 
Date/Time
CST
Temp
°C
App
Temp
°C
Dew
Point
Rel
Hum
%
Delta-T
°C
Wind Press
QNH
hPa
Press
MSL
hPa
Rain
since 9 am
mm
Dir
 
Spd
km/h
Gust
km/h
Spd
kts
Gust
kts
22/11:30pm 24.2 26.9 17.7 67 4.1 CALM 0 0 0 0 1011.7 - 0.0
22/11:00pm 24.7 27.0 17.7 65 4.4 NNW 2 6 1 3 1011.6 - 0.0
22/10:30pm 25.5 28.0 17.2 60 5.2 CALM 0 0 0 0 1011.5 - 0.0
22/10:00pm 25.1 28.0 18.1 65 4.4 CALM 0 0 0 0 1011.6 - 0.0
22/09:30pm 26.5 28.2 18.1 60 5.3 NE 6 7 3 4 1011.5 - 0.0
22/09:00pm 28.6 28.7 15.5 45 8.1 E 9 9 5 5 1011.1 1010.6 0.0
22/08:30pm 29.0 29.0 15.2 43 8.5 ENE 9 11 5 6 1010.9 - 0.0
22/08:00pm 29.5 29.5 15.2 41 8.8 ENE 9 11 5 6 1010.4 - 0.0
22/07:30pm 30.0 29.6 14.1 37 9.6 NE 9 11 5 6 1010.0 - 0.0
22/07:00pm 31.6 31.3 13.4 33 11.0 E 7 11 4 6 1009.6 - 0.0
22/06:30pm 32.9 32.0 12.5 29 12.2 ESE 9 13 5 7 1009.3 - 0.0
22/06:00pm 34.6 32.1 12.3 26 13.4 ESE 17 24 9 13 1009.0 1008.5 0.0
22/05:30pm 35.4 32.9 12.4 25 13.8 ESE 17 24 9 13 1008.7 - 0.0
22/05:00pm 35.8 32.8 12.7 25 14.0 ESE 20 33 11 18 1008.5 - 0.0
22/04:30pm 36.3 33.1 13.1 25 14.2 SE 22 35 12 19 1008.4 - 0.0
22/04:00pm 36.5 33.9 13.3 25 14.2 SE 19 33 10 18 1008.5 - 0.0
22/03:30pm 35.4 31.8 13.0 26 13.6 ESE 24 37 13 20 1008.7 - 0.0
22/03:00pm 36.1 33.4 13.6 26 13.8 E 20 32 11 17 1009.1 1008.6 0.0
22/02:30pm 36.7 35.0 13.5 25 14.3 E 15 28 8 15 1009.6 - 0.0
22/02:00pm 36.9 33.9 13.6 24 14.4 SE 22 39 12 21 1010.1 - 0.0

Other Formats:

Comma delimited format used in spreadsheet applications
http://www.bom.gov.au/fwo/IDD60801/IDD60801.94130.axf

JavaScript Object Notation format (JSON) in row-major order
http://www.bom.gov.au/fwo/IDD60801/IDD60801.94130.json